Time;durP1;ratioP1;P1;durP2;ratioP2;P2;SDS_P1;SDS_P2;PMS_P1;PMS_P2;Temp;Humidity;BMP_temperature;BMP_pressure;BME280_temperature;BME280_humidity;BME280_pressure;Samples;Min_cycle;Max_cycle;Signal;HPM_P1;HPM_P2
2022/07/19 00:02:03;;;;;;;15.27;7.90;;;;;;;;;;4938967;29;20040;-90
2022/07/19 00:04:29;;;;;;;14.43;9.02;;;;;;;;;;4919667;29;20040;-90
2022/07/19 00:06:55;;;;;;;15.05;9.05;;;;;;;;;;4938977;29;20027;-90
2022/07/19 00:09:22;;;;;;;19.08;8.50;;;;;;;;;;4935878;29;20055;-90
2022/07/19 00:11:48;;;;;;;19.92;9.65;;;;;;;;;;4924254;29;20067;-90
2022/07/19 00:14:15;;;;;;;17.63;9.10;;;;;;;;;;4937942;29;20363;-90
2022/07/19 00:16:41;;;;;;;15.68;8.77;;;;;;;;;;4943224;28;20098;-89
2022/07/19 00:19:07;;;;;;;15.75;8.93;;;;;;;;;;4927244;29;20043;-89
2022/07/19 00:21:33;;;;;;;12.88;9.07;;;;;;;;;;4939661;28;20036;-89
2022/07/19 00:24:00;;;;;;;21.23;10.70;;;;;;;;;;4953249;28;20076;-89
2022/07/19 00:26:26;;;;;;;17.50;10.30;;;;;;;;;;4922428;29;20388;-90
2022/07/19 00:28:54;;;;;;;28.48;10.40;;;;;;;;;;4940172;29;20030;-89
2022/07/19 00:31:20;;;;;;;15.88;9.48;;;;;;;;;;4952379;28;20039;-90
2022/07/19 00:33:53;;;;;;;14.45;9.00;;;;;;;;;;4951174;28;20452;-89
2022/07/19 00:36:19;;;;;;;14.88;9.77;;;;;;;;;;4954002;28;20042;-90
2022/07/19 00:38:46;;;;;;;17.73;9.70;;;;;;;;;;4954459;28;20544;-89
2022/07/19 00:41:12;;;;;;;15.95;8.80;;;;;;;;;;4940122;29;20059;-90
2022/07/19 00:43:42;;;;;;;15.20;9.18;;;;;;;;;;4953101;28;20747;-89
2022/07/19 00:46:15;;;;;;;18.88;9.00;;;;;;;;;;4955493;28;20408;-90
2022/07/19 00:48:41;;;;;;;13.55;8.30;;;;;;;;;;4938385;29;20089;-90
2022/07/19 00:51:08;;;;;;;13.75;7.80;;;;;;;;;;4936130;29;20102;-90
2022/07/19 00:53:42;;;;;;;15.18;9.43;;;;;;;;;;4938051;29;20035;-90
2022/07/19 00:56:09;;;;;;;19.05;9.15;;;;;;;;;;4952915;28;20146;-89
2022/07/19 00:58:35;;;;;;;16.15;9.13;;;;;;;;;;4947267;28;20124;-90
2022/07/19 01:01:03;;;;;;;17.35;9.15;;;;;;;;;;4952793;28;20027;-90
2022/07/19 01:03:29;;;;;;;13.80;8.88;;;;;;;;;;4937616;29;20364;-89
2022/07/19 01:05:55;;;;;;;19.80;9.68;;;;;;;;;;4925215;29;20411;-90
2022/07/19 01:08:21;;;;;;;16.38;10.13;;;;;;;;;;4934673;29;20098;-90
2022/07/19 01:10:47;;;;;;;14.65;9.07;;;;;;;;;;4948448;28;20468;-90
2022/07/19 01:13:14;;;;;;;15.52;8.73;;;;;;;;;;4951144;28;20032;-90
2022/07/19 01:15:41;;;;;;;20.63;9.75;;;;;;;;;;4946713;28;20074;-89
2022/07/19 01:18:07;;;;;;;13.60;8.15;;;;;;;;;;4945661;28;20499;-90
2022/07/19 01:20:33;;;;;;;16.83;8.50;;;;;;;;;;4919872;29;20036;-90
2022/07/19 01:22:59;;;;;;;21.67;9.25;;;;;;;;;;4949177;28;20040;-90
2022/07/19 01:25:26;;;;;;;16.55;8.98;;;;;;;;;;4933028;29;20122;-90
2022/07/19 01:27:52;;;;;;;17.15;9.02;;;;;;;;;;4944794;28;20035;-89
2022/07/19 01:30:20;;;;;;;17.67;11.02;;;;;;;;;;4922541;29;20128;-90
2022/07/19 01:32:46;;;;;;;19.15;10.40;;;;;;;;;;4932881;29;20035;-89
2022/07/19 01:35:13;;;;;;;17.23;10.57;;;;;;;;;;4948588;28;20126;-89
2022/07/19 01:37:39;;;;;;;16.60;9.65;;;;;;;;;;4945631;28;20120;-89
2022/07/19 01:40:07;;;;;;;22.67;10.45;;;;;;;;;;4945153;28;20059;-89
2022/07/19 01:42:33;;;;;;;21.33;10.07;;;;;;;;;;4932122;29;20414;-90
2022/07/19 01:44:59;;;;;;;22.70;10.07;;;;;;;;;;4942908;28;20036;-90
2022/07/19 01:47:25;;;;;;;27.70;11.05;;;;;;;;;;4931717;29;20055;-89
2022/07/19 01:49:51;;;;;;;24.88;10.23;;;;;;;;;;4933754;29;20032;-90
2022/07/19 01:52:18;;;;;;;20.23;10.77;;;;;;;;;;4946466;28;20482;-89
2022/07/19 01:54:44;;;;;;;17.65;10.10;;;;;;;;;;4935038;29;20031;-89
2022/07/19 01:57:10;;;;;;;23.45;9.63;;;;;;;;;;4944158;28;21583;-89
2022/07/19 01:59:36;;;;;;;18.35;9.63;;;;;;;;;;4930415;29;20134;-88
2022/07/19 02:02:02;;;;;;;21.88;9.25;;;;;;;;;;4931787;29;20448;-88
2022/07/19 02:04:28;;;;;;;15.73;10.48;;;;;;;;;;4947837;28;20040;-89
2022/07/19 02:06:54;;;;;;;15.07;9.10;;;;;;;;;;4909896;29;20028;-89
2022/07/19 02:09:20;;;;;;;16.33;9.90;;;;;;;;;;4954179;28;20038;-90
2022/07/19 02:11:46;;;;;;;19.88;10.60;;;;;;;;;;4932237;29;20027;-90
2022/07/19 02:14:12;;;;;;;21.60;10.35;;;;;;;;;;4947104;28;20027;-90
2022/07/19 02:16:39;;;;;;;18.00;10.40;;;;;;;;;;4912347;29;20547;-88
2022/07/19 02:19:05;;;;;;;14.80;9.70;;;;;;;;;;4929397;29;20499;-89
2022/07/19 02:21:32;;;;;;;20.48;10.55;;;;;;;;;;4932456;29;20039;-88
2022/07/19 02:23:59;;;;;;;17.52;10.15;;;;;;;;;;4946179;28;20098;-89
2022/07/19 02:26:25;;;;;;;25.20;9.93;;;;;;;;;;4920450;29;20211;-89
2022/07/19 02:28:51;;;;;;;17.60;10.05;;;;;;;;;;4943408;28;20024;-88
2022/07/19 02:31:17;;;;;;;17.30;9.52;;;;;;;;;;4931899;29;20031;-89
2022/07/19 02:33:43;;;;;;;15.75;9.18;;;;;;;;;;4930327;29;20031;-89
2022/07/19 02:36:09;;;;;;;17.20;9.32;;;;;;;;;;4942684;28;20035;-88
2022/07/19 02:38:36;;;;;;;15.65;8.63;;;;;;;;;;4913632;29;20072;-88
2022/07/19 02:41:02;;;;;;;15.57;9.88;;;;;;;;;;4945153;28;20106;-89
2022/07/19 02:43:28;;;;;;;20.27;9.93;;;;;;;;;;4914900;29;20082;-89
2022/07/19 02:45:54;;;;;;;18.98;9.30;;;;;;;;;;4933600;29;20476;-89
2022/07/19 02:48:20;;;;;;;16.38;9.45;;;;;;;;;;4945656;28;20032;-89
2022/07/19 02:50:47;;;;;;;28.42;10.55;;;;;;;;;;4930595;29;20126;-89
2022/07/19 02:53:13;;;;;;;19.48;9.75;;;;;;;;;;4928435;29;20031;-89
2022/07/19 02:55:52;;;;;;;16.80;9.52;;;;;;;;;;4930626;28;20039;-89
2022/07/19 02:58:18;;;;;;;19.90;10.43;;;;;;;;;;4901330;29;20501;-89
2022/07/19 03:00:44;;;;;;;17.40;9.20;;;;;;;;;;4890482;29;20727;-89
2022/07/19 03:05:56;;;;;;;15.55;9.15;;;;;;;;;;4897010;29;20064;-90
2022/07/19 03:08:22;;;;;;;16.40;9.75;;;;;;;;;;4906186;29;20071;-90
2022/07/19 03:10:48;;;;;;;14.32;9.30;;;;;;;;;;4893440;29;20054;-89
2022/07/19 03:13:14;;;;;;;19.90;9.60;;;;;;;;;;4891522;29;20036;-89
2022/07/19 03:15:40;;;;;;;22.10;11.30;;;;;;;;;;4896491;29;20042;-89
2022/07/19 03:18:06;;;;;;;18.20;11.27;;;;;;;;;;4891803;29;20032;-89
2022/07/19 03:20:32;;;;;;;20.13;11.85;;;;;;;;;;4913380;29;20095;-89
2022/07/19 03:22:58;;;;;;;19.52;10.98;;;;;;;;;;4897344;29;20041;-89
2022/07/19 03:25:24;;;;;;;14.93;9.13;;;;;;;;;;4896099;29;20036;-90
2022/07/19 03:27:50;;;;;;;18.05;10.70;;;;;;;;;;4890524;29;20680;-90
2022/07/19 03:30:17;;;;;;;20.08;10.82;;;;;;;;;;4893618;29;20103;-90
2022/07/19 03:32:43;;;;;;;15.65;10.13;;;;;;;;;;4891049;29;20099;-89
2022/07/19 03:35:09;;;;;;;15.90;10.25;;;;;;;;;;4908104;29;20043;-90
2022/07/19 03:37:35;;;;;;;18.08;9.82;;;;;;;;;;4890193;29;20044;-89
2022/07/19 03:40:01;;;;;;;21.67;10.18;;;;;;;;;;4890499;29;20039;-89
2022/07/19 03:42:27;;;;;;;15.25;10.50;;;;;;;;;;4889986;29;20037;-89
2022/07/19 03:44:53;;;;;;;15.77;9.90;;;;;;;;;;4892698;29;20028;-89
2022/07/19 03:47:20;;;;;;;17.00;11.20;;;;;;;;;;4905440;29;20048;-89
2022/07/19 03:49:46;;;;;;;18.40;9.05;;;;;;;;;;4894108;29;20030;-89
2022/07/19 03:52:13;;;;;;;22.63;10.80;;;;;;;;;;4896621;29;20037;-90
2022/07/19 03:54:39;;;;;;;15.43;9.73;;;;;;;;;;4909307;29;20491;-89
2022/07/19 03:57:05;;;;;;;16.83;9.32;;;;;;;;;;4906227;28;20056;-91
2022/07/19 03:59:31;;;;;;;17.80;10.07;;;;;;;;;;4927078;29;20035;-89
2022/07/19 04:01:58;;;;;;;14.30;8.65;;;;;;;;;;4932537;29;20031;-88
2022/07/19 04:04:24;;;;;;;16.98;9.20;;;;;;;;;;4937195;28;20062;-89
2022/07/19 04:06:50;;;;;;;15.93;8.77;;;;;;;;;;4943030;28;20472;-89
2022/07/19 04:09:16;;;;;;;26.15;9.88;;;;;;;;;;4940168;28;20043;-89
2022/07/19 04:11:42;;;;;;;17.83;9.27;;;;;;;;;;4943513;28;20373;-89
2022/07/19 04:14:08;;;;;;;15.38;9.10;;;;;;;;;;4927873;29;20042;-89
2022/07/19 04:16:34;;;;;;;18.00;8.35;;;;;;;;;;4928479;29;20055;-89
2022/07/19 04:19:00;;;;;;;18.27;8.85;;;;;;;;;;4944940;28;20036;-89
2022/07/19 04:21:26;;;;;;;18.52;8.95;;;;;;;;;;4931311;29;20110;-90
2022/07/19 04:23:52;;;;;;;20.00;9.45;;;;;;;;;;4928648;29;20028;-89
2022/07/19 04:26:18;;;;;;;21.60;10.20;;;;;;;;;;4943212;28;20036;-89
2022/07/19 04:28:45;;;;;;;17.60;9.30;;;;;;;;;;4935920;29;20102;-90
2022/07/19 04:31:11;;;;;;;14.65;8.27;;;;;;;;;;4916885;28;20126;-89
2022/07/19 04:33:37;;;;;;;19.08;8.45;;;;;;;;;;4945998;28;20070;-89
2022/07/19 04:36:03;;;;;;;16.80;9.25;;;;;;;;;;4930408;29;21682;-90
2022/07/19 04:38:29;;;;;;;14.70;9.50;;;;;;;;;;4951729;28;20043;-89
2022/07/19 04:40:55;;;;;;;14.13;9.23;;;;;;;;;;4918367;29;20032;-90
2022/07/19 04:43:21;;;;;;;16.08;8.32;;;;;;;;;;4947685;28;20048;-89
2022/07/19 04:45:47;;;;;;;14.80;9.23;;;;;;;;;;4918515;29;20055;-89
2022/07/19 04:48:13;;;;;;;20.08;8.68;;;;;;;;;;4947929;28;20840;-89
2022/07/19 04:50:40;;;;;;;16.65;8.00;;;;;;;;;;4917869;29;20027;-89
2022/07/19 04:53:06;;;;;;;16.95;8.55;;;;;;;;;;4945838;28;20492;-90
2022/07/19 04:55:32;;;;;;;14.93;8.57;;;;;;;;;;4945514;28;20043;-89
2022/07/19 04:57:58;;;;;;;15.75;8.13;;;;;;;;;;4944269;28;20050;-89
2022/07/19 05:00:24;;;;;;;19.25;8.20;;;;;;;;;;4934416;29;20036;-90
2022/07/19 05:02:50;;;;;;;21.80;8.95;;;;;;;;;;4947246;28;20918;-88
2022/07/19 05:05:16;;;;;;;15.82;8.60;;;;;;;;;;4943328;28;20040;-90
2022/07/19 05:07:44;;;;;;;18.35;8.50;;;;;;;;;;4930869;29;20123;-90
2022/07/19 05:10:11;;;;;;;13.73;8.55;;;;;;;;;;4935908;29;20406;-89
2022/07/19 05:12:37;;;;;;;15.85;8.52;;;;;;;;;;4948432;28;20169;-89
2022/07/19 05:15:03;;;;;;;17.42;8.10;;;;;;;;;;4929895;28;20043;-89
2022/07/19 05:17:32;;;;;;;17.35;8.32;;;;;;;;;;4917167;29;20035;-89
2022/07/19 05:19:58;;;;;;;23.48;8.98;;;;;;;;;;4929574;29;20122;-88
2022/07/19 05:22:25;;;;;;;14.88;8.25;;;;;;;;;;4943632;28;20036;-88
2022/07/19 05:24:55;;;;;;;20.15;8.45;;;;;;;;;;4932254;29;20036;-90
2022/07/19 05:27:22;;;;;;;22.73;7.95;;;;;;;;;;4942385;28;20027;-89
2022/07/19 05:29:48;;;;;;;29.92;8.73;;;;;;;;;;4942592;28;20090;-90
2022/07/19 05:32:14;;;;;;;38.25;8.50;;;;;;;;;;4952415;28;20031;-90
2022/07/19 05:34:40;;;;;;;29.95;8.65;;;;;;;;;;4931313;29;20052;-90
2022/07/19 05:37:06;;;;;;;57.22;10.00;;;;;;;;;;4945470;28;20291;-89
2022/07/19 05:39:32;;;;;;;44.53;8.77;;;;;;;;;;4943675;28;20549;-89
2022/07/19 05:41:58;;;;;;;40.17;8.73;;;;;;;;;;4929356;29;20031;-90
2022/07/19 05:44:24;;;;;;;39.40;8.63;;;;;;;;;;4944942;28;20043;-90
2022/07/19 05:46:50;;;;;;;47.95;9.93;;;;;;;;;;4925890;29;20050;-90
2022/07/19 05:49:16;;;;;;;29.98;8.73;;;;;;;;;;4916739;29;20028;-90
2022/07/19 05:51:43;;;;;;;38.58;8.85;;;;;;;;;;4945442;28;20039;-89
2022/07/19 05:54:10;;;;;;;65.90;9.82;;;;;;;;;;4929806;29;20032;-90
2022/07/19 05:56:36;;;;;;;55.55;10.00;;;;;;;;;;4940508;28;20035;-89
2022/07/19 05:59:02;;;;;;;47.17;9.57;;;;;;;;;;4913155;29;20111;-89
2022/07/19 06:01:28;;;;;;;26.48;8.32;;;;;;;;;;4950919;28;20098;-90
2022/07/19 06:03:58;;;;;;;38.45;8.85;;;;;;;;;;4944492;28;20579;-90
2022/07/19 06:06:26;;;;;;;29.92;8.20;;;;;;;;;;4926969;28;20381;-89
2022/07/19 06:08:52;;;;;;;54.90;9.43;;;;;;;;;;4925826;29;20492;-90
2022/07/19 06:11:22;;;;;;;33.40;7.60;;;;;;;;;;4923704;29;20035;-89
2022/07/19 06:13:49;;;;;;;39.88;7.88;;;;;;;;;;4930999;29;20514;-90
2022/07/19 06:16:15;;;;;;;31.98;8.52;;;;;;;;;;4938127;28;20047;-90
2022/07/19 06:18:41;;;;;;;20.52;7.60;;;;;;;;;;4939580;28;20499;-90
2022/07/19 06:21:08;;;;;;;29.52;7.50;;;;;;;;;;4944849;28;20035;-90
2022/07/19 06:23:34;;;;;;;15.82;6.88;;;;;;;;;;4929934;29;20583;-91
2022/07/19 06:26:00;;;;;;;34.22;7.00;;;;;;;;;;4930100;29;20028;-90
2022/07/19 06:28:26;;;;;;;32.97;7.53;;;;;;;;;;4943704;28;20118;-90
2022/07/19 06:30:53;;;;;;;40.33;8.20;;;;;;;;;;4933847;29;20058;-90
2022/07/19 06:33:19;;;;;;;51.60;8.52;;;;;;;;;;4946493;28;20126;-91
2022/07/19 06:35:46;;;;;;;37.67;7.43;;;;;;;;;;4915026;29;20082;-90
2022/07/19 06:38:12;;;;;;;27.23;6.13;;;;;;;;;;4953338;28;20043;-91
2022/07/19 06:40:38;;;;;;;25.83;6.30;;;;;;;;;;4932024;29;20491;-91
2022/07/19 06:43:04;;;;;;;65.00;7.38;;;;;;;;;;4914091;29;20521;-89
2022/07/19 06:45:30;;;;;;;26.58;6.15;;;;;;;;;;4933153;29;21420;-89
2022/07/19 06:47:57;;;;;;;9.63;5.70;;;;;;;;;;4948457;28;20114;-90
2022/07/19 06:50:23;;;;;;;16.15;5.78;;;;;;;;;;4929636;29;20031;-91
2022/07/19 06:52:55;;;;;;;8.38;5.43;;;;;;;;;;4942201;28;20016;-90
2022/07/19 06:55:21;;;;;;;13.07;5.85;;;;;;;;;;4945385;28;20391;-88
2022/07/19 06:57:47;;;;;;;12.95;5.90;;;;;;;;;;4931076;28;20067;-89
2022/07/19 07:00:14;;;;;;;13.98;6.10;;;;;;;;;;4944726;28;20041;-89
2022/07/19 07:02:40;;;;;;;10.90;5.93;;;;;;;;;;4946481;28;20039;-90
2022/07/19 07:05:08;;;;;;;9.25;4.85;;;;;;;;;;4944739;28;20050;-96
2022/07/19 07:07:34;;;;;;;9.93;5.07;;;;;;;;;;4949756;28;20575;-94
2022/07/19 07:10:01;;;;;;;11.02;4.95;;;;;;;;;;4913367;29;20098;-94
2022/07/19 07:12:27;;;;;;;9.68;4.97;;;;;;;;;;4942972;28;20056;-95
2022/07/19 07:14:53;;;;;;;15.30;5.72;;;;;;;;;;4946596;28;20024;-94
2022/07/19 07:17:20;;;;;;;14.50;5.88;;;;;;;;;;4946962;28;20447;-95
2022/07/19 07:19:46;;;;;;;9.77;4.93;;;;;;;;;;4943282;28;20036;-95
2022/07/19 07:22:12;;;;;;;25.15;6.72;;;;;;;;;;4913602;29;20050;-95
2022/07/19 07:24:38;;;;;;;27.85;5.43;;;;;;;;;;4944129;28;20048;-96
2022/07/19 07:27:04;;;;;;;32.03;5.78;;;;;;;;;;4951184;28;20055;-95
2022/07/19 07:29:30;;;;;;;13.65;4.90;;;;;;;;;;4919466;29;20400;-94
2022/07/19 07:31:56;;;;;;;17.98;5.35;;;;;;;;;;4946291;28;20035;-94
2022/07/19 07:34:22;;;;;;;53.67;6.72;;;;;;;;;;4944573;28;20032;-93
2022/07/19 07:36:48;;;;;;;20.70;5.05;;;;;;;;;;4947771;28;20163;-93
2022/07/19 07:39:15;;;;;;;8.93;4.20;;;;;;;;;;4913293;29;20122;-93
2022/07/19 07:41:41;;;;;;;11.25;4.55;;;;;;;;;;4945137;28;20723;-93
2022/07/19 07:44:07;;;;;;;12.65;4.45;;;;;;;;;;4921108;29;20905;-95
2022/07/19 07:46:33;;;;;;;15.38;5.63;;;;;;;;;;4932631;29;20237;-94
2022/07/19 07:48:59;;;;;;;20.67;5.07;;;;;;;;;;4947206;28;20431;-93
2022/07/19 07:51:25;;;;;;;12.07;4.43;;;;;;;;;;4948719;28;20442;-94
2022/07/19 07:53:51;;;;;;;7.68;4.38;;;;;;;;;;4947512;28;20032;-94
2022/07/19 07:56:17;;;;;;;10.73;4.43;;;;;;;;;;4931855;29;20047;-94
2022/07/19 07:58:43;;;;;;;9.27;4.32;;;;;;;;;;4894233;29;20064;-94
2022/07/19 08:01:09;;;;;;;6.80;4.25;;;;;;;;;;4892114;29;20041;-94
2022/07/19 08:03:36;;;;;;;14.65;4.57;;;;;;;;;;4923680;29;20049;-93
2022/07/19 08:06:02;;;;;;;7.28;4.57;;;;;;;;;;4896769;29;20040;-94
2022/07/19 08:08:28;;;;;;;9.98;4.72;;;;;;;;;;4900639;29;20033;-94
2022/07/19 08:10:54;;;;;;;12.60;4.63;;;;;;;;;;4891868;29;20153;-94
2022/07/19 08:13:23;;;;;;;46.10;6.60;;;;;;;;;;4895124;29;20044;-94
2022/07/19 08:15:50;;;;;;;36.70;5.45;;;;;;;;;;4923488;29;20092;-94
2022/07/19 08:18:17;;;;;;;9.43;4.45;;;;;;;;;;4912846;29;20037;-94
2022/07/19 08:20:43;;;;;;;9.02;3.85;;;;;;;;;;4929333;29;20468;-94
2022/07/19 08:23:09;;;;;;;9.95;3.72;;;;;;;;;;4895016;29;20032;-94
2022/07/19 08:25:35;;;;;;;6.93;3.63;;;;;;;;;;4897323;29;20028;-94
2022/07/19 08:28:02;;;;;;;23.77;4.80;;;;;;;;;;4924419;29;20033;-95
2022/07/19 08:30:28;;;;;;;9.57;4.60;;;;;;;;;;4924844;29;20042;-94
2022/07/19 08:32:54;;;;;;;17.10;3.80;;;;;;;;;;4926166;29;20028;-94
2022/07/19 08:35:26;;;;;;;35.83;4.95;;;;;;;;;;4893591;29;20088;-95
2022/07/19 08:37:52;;;;;;;22.73;4.35;;;;;;;;;;4925522;29;20564;-92
2022/07/19 08:40:18;;;;;;;11.70;3.58;;;;;;;;;;4910925;29;20048;-92
2022/07/19 08:42:44;;;;;;;6.85;3.38;;;;;;;;;;4923572;29;20036;-91
2022/07/19 08:45:11;;;;;;;8.23;3.78;;;;;;;;;;4895675;29;20037;-93
2022/07/19 08:47:38;;;;;;;9.88;3.88;;;;;;;;;;4892806;29;20050;-92
2022/07/19 08:50:05;;;;;;;9.15;3.30;;;;;;;;;;4895617;29;20061;-93
2022/07/19 08:52:35;;;;;;;9.27;3.63;;;;;;;;;;4902732;29;20377;-92
2022/07/19 08:55:02;;;;;;;7.57;3.97;;;;;;;;;;4906845;29;20048;-93
2022/07/19 09:00:13;;;;;;;5.00;3.00;;;;;;;;;;4932650;29;20395;-91
2022/07/19 09:02:39;;;;;;;6.85;3.17;;;;;;;;;;4933471;29;20028;-92
2022/07/19 09:05:10;;;;;;;4.38;3.35;;;;;;;;;;4942520;28;20135;-91
2022/07/19 09:07:37;;;;;;;9.18;3.30;;;;;;;;;;4912832;29;20083;-92
2022/07/19 09:10:20;;;;;;;6.07;3.22;;;;;;;;;;4945016;28;20059;-91
2022/07/19 09:12:59;;;;;;;7.40;3.50;;;;;;;;;;4943341;28;20028;-92
2022/07/19 09:15:39;;;;;;;11.85;3.70;;;;;;;;;;4931102;29;20463;-91
2022/07/19 09:18:09;;;;;;;12.48;3.35;;;;;;;;;;4948841;28;20040;-92
2022/07/19 09:20:35;;;;;;;33.13;4.80;;;;;;;;;;4947155;28;20175;-92
2022/07/19 09:23:01;;;;;;;40.75;5.78;;;;;;;;;;4943152;28;20044;-92
2022/07/19 09:25:48;;;;;;;30.00;4.30;;;;;;;;;;4945346;28;20475;-92
2022/07/19 09:28:14;;;;;;;10.60;3.75;;;;;;;;;;4932713;29;20040;-91
2022/07/19 09:30:42;;;;;;;40.08;4.53;;;;;;;;;;4933329;29;20032;-91
2022/07/19 09:33:09;;;;;;;21.52;3.53;;;;;;;;;;4945191;28;20031;-92
2022/07/19 09:35:37;;;;;;;15.38;3.25;;;;;;;;;;4932865;29;20082;-92
2022/07/19 09:38:15;;;;;;;30.30;4.65;;;;;;;;;;4943862;28;20063;-91
2022/07/19 09:40:41;;;;;;;12.00;3.65;;;;;;;;;;4939031;28;20385;-91
2022/07/19 09:43:07;;;;;;;10.75;3.30;;;;;;;;;;4943667;28;20500;-91
2022/07/19 09:45:33;;;;;;;47.42;4.22;;;;;;;;;;4928123;29;20094;-92
2022/07/19 09:48:03;;;;;;;50.65;5.25;;;;;;;;;;4944784;28;20028;-92
2022/07/19 09:50:30;;;;;;;17.45;3.60;;;;;;;;;;4947025;28;20039;-92
2022/07/19 09:52:59;;;;;;;18.85;3.17;;;;;;;;;;4928979;29;20130;-91
2022/07/19 09:55:25;;;;;;;14.77;3.80;;;;;;;;;;4945121;28;20122;-92
2022/07/19 09:57:52;;;;;;;31.13;4.07;;;;;;;;;;4945293;28;20083;-92
2022/07/19 10:00:21;;;;;;;29.33;4.50;;;;;;;;;;4916393;29;20395;-91
2022/07/19 10:02:49;;;;;;;18.88;4.10;;;;;;;;;;4928493;29;20039;-92
2022/07/19 10:05:15;;;;;;;29.95;5.28;;;;;;;;;;4947994;28;20043;-91
2022/07/19 10:07:41;;;;;;;10.82;3.25;;;;;;;;;;4929893;29;20031;-92
2022/07/19 10:10:12;;;;;;;7.00;3.20;;;;;;;;;;4917203;29;20404;-92
2022/07/19 10:12:39;;;;;;;11.63;3.33;;;;;;;;;;4926484;29;20028;-93
2022/07/19 10:15:05;;;;;;;21.52;3.78;;;;;;;;;;4927958;29;20051;-92
2022/07/19 10:17:47;;;;;;;14.73;4.72;;;;;;;;;;4943902;28;20055;-92
2022/07/19 10:20:16;;;;;;;37.22;4.47;;;;;;;;;;4934129;29;20040;-92
2022/07/19 10:22:42;;;;;;;29.02;3.92;;;;;;;;;;4920075;29;20039;-92
2022/07/19 10:25:13;;;;;;;19.15;3.42;;;;;;;;;;4952655;28;20030;-91
2022/07/19 10:27:41;;;;;;;13.63;3.92;;;;;;;;;;4933213;29;20492;-91
2022/07/19 10:30:10;;;;;;;19.80;4.00;;;;;;;;;;4947515;28;20032;-91
2022/07/19 10:32:37;;;;;;;9.48;2.55;;;;;;;;;;4932823;29;20118;-91
2022/07/19 10:35:18;;;;;;;9.43;2.95;;;;;;;;;;4931516;29;20041;-92
2022/07/19 10:37:48;;;;;;;6.03;3.17;;;;;;;;;;4931899;29;20043;-92
2022/07/19 10:40:14;;;;;;;7.32;2.72;;;;;;;;;;4933491;29;20447;-92
2022/07/19 10:43:05;;;;;;;4.78;2.67;;;;;;;;;;4948375;28;20032;-91
2022/07/19 10:45:31;;;;;;;5.70;2.70;;;;;;;;;;4943372;28;20032;-92
2022/07/19 10:48:01;;;;;;;9.73;2.92;;;;;;;;;;4930519;29;20122;-92
2022/07/19 10:50:42;;;;;;;6.13;3.15;;;;;;;;;;4946723;28;20027;-92
2022/07/19 10:53:08;;;;;;;9.55;3.58;;;;;;;;;;4915446;29;20566;-92
2022/07/19 10:55:36;;;;;;;9.43;2.45;;;;;;;;;;4946889;28;20502;-92
2022/07/19 10:58:10;;;;;;;12.30;2.95;;;;;;;;;;4946658;28;20077;-91
2022/07/19 11:00:44;;;;;;;9.57;2.77;;;;;;;;;;4943922;28;20035;-92
2022/07/19 11:03:22;;;;;;;11.20;2.93;;;;;;;;;;4948414;28;20540;-92
2022/07/19 11:05:50;;;;;;;8.25;2.78;;;;;;;;;;4939369;28;20044;-91
2022/07/19 11:08:16;;;;;;;3.58;2.63;;;;;;;;;;4914795;29;20024;-92
2022/07/19 11:10:42;;;;;;;3.90;2.85;;;;;;;;;;4929467;29;20035;-92
2022/07/19 11:13:08;;;;;;;7.88;2.72;;;;;;;;;;4938523;28;20036;-92
2022/07/19 11:15:34;;;;;;;39.47;4.50;;;;;;;;;;4931453;29;20034;-92
2022/07/19 11:18:07;;;;;;;27.05;4.22;;;;;;;;;;4944359;28;20744;-92
2022/07/19 11:20:35;;;;;;;50.10;6.13;;;;;;;;;;4927966;29;20458;-94
2022/07/19 11:23:03;;;;;;;24.55;3.25;;;;;;;;;;4925869;29;20040;-91
2022/07/19 11:25:34;;;;;;;10.27;3.00;;;;;;;;;;4948584;28;20161;-91
2022/07/19 11:28:01;;;;;;;13.82;3.30;;;;;;;;;;4930372;29;20127;-91
2022/07/19 11:30:28;;;;;;;19.17;3.13;;;;;;;;;;4925854;29;20031;-88
2022/07/19 11:32:56;;;;;;;33.72;4.72;;;;;;;;;;4932912;29;20059;-89
2022/07/19 11:35:23;;;;;;;28.63;3.55;;;;;;;;;;4933225;29;20118;-89
2022/07/19 11:37:49;;;;;;;18.85;3.60;;;;;;;;;;4917366;29;20491;-89
2022/07/19 11:40:15;;;;;;;13.30;3.15;;;;;;;;;;4942122;28;20048;-88
2022/07/19 11:42:45;;;;;;;18.95;3.00;;;;;;;;;;4921530;29;20028;-88
2022/07/19 11:45:16;;;;;;;43.35;5.20;;;;;;;;;;4945470;28;20050;-89
2022/07/19 11:47:49;;;;;;;17.33;3.95;;;;;;;;;;4928425;28;20036;-88
2022/07/19 11:50:23;;;;;;;9.52;2.83;;;;;;;;;;4941866;28;20027;-89
2022/07/19 11:52:52;;;;;;;19.95;3.28;;;;;;;;;;4927680;29;20047;-89
2022/07/19 11:55:20;;;;;;;7.50;2.70;;;;;;;;;;4942410;28;20035;-89
2022/07/19 11:57:47;;;;;;;3.17;2.42;;;;;;;;;;4945004;28;20043;-89
2022/07/19 12:00:13;;;;;;;16.88;4.57;;;;;;;;;;4912721;29;20051;-90
2022/07/19 12:02:57;;;;;;;41.05;5.28;;;;;;;;;;4926705;29;20127;-90
2022/07/19 12:05:24;;;;;;;18.30;4.10;;;;;;;;;;4943389;28;20119;-90
2022/07/19 12:07:51;;;;;;;26.63;4.40;;;;;;;;;;4939276;28;20506;-89
2022/07/19 12:10:33;;;;;;;49.22;4.47;;;;;;;;;;4944893;28;20372;-90
2022/07/19 12:13:00;;;;;;;13.52;3.15;;;;;;;;;;4939555;28;20086;-90
2022/07/19 12:15:26;;;;;;;14.68;3.00;;;;;;;;;;4930540;29;20484;-90
2022/07/19 12:17:58;;;;;;;2.97;2.30;;;;;;;;;;4941402;28;20466;-90
2022/07/19 12:20:24;;;;;;;8.45;3.30;;;;;;;;;;4933676;29;20745;-91
2022/07/19 12:22:52;;;;;;;6.30;2.85;;;;;;;;;;4928569;29;20483;-90
2022/07/19 12:25:36;;;;;;;6.47;3.22;;;;;;;;;;4927485;29;20024;-89
2022/07/19 12:28:02;;;;;;;21.35;3.00;;;;;;;;;;4940594;28;20036;-90
2022/07/19 12:30:29;;;;;;;4.60;2.17;;;;;;;;;;4941144;28;20123;-90
2022/07/19 12:33:05;;;;;;;12.20;2.90;;;;;;;;;;4913697;29;20023;-89
2022/07/19 12:35:41;;;;;;;11.68;3.30;;;;;;;;;;4944835;28;20027;-89
2022/07/19 12:38:09;;;;;;;9.00;2.60;;;;;;;;;;4942318;28;20043;-89
2022/07/19 12:40:36;;;;;;;6.53;2.65;;;;;;;;;;4931027;29;20027;-90
2022/07/19 12:43:05;;;;;;;10.63;3.13;;;;;;;;;;4941722;28;20020;-89
2022/07/19 12:45:33;;;;;;;5.88;2.78;;;;;;;;;;4924226;29;20043;-90
2022/07/19 12:47:59;;;;;;;28.92;3.47;;;;;;;;;;4928724;29;20503;-90
2022/07/19 12:50:30;;;;;;;9.70;2.60;;;;;;;;;;4943021;28;20036;-90
2022/07/19 12:52:57;;;;;;;43.15;4.35;;;;;;;;;;4928266;29;20032;-89
2022/07/19 12:55:23;;;;;;;29.08;3.33;;;;;;;;;;4932942;29;20492;-89
2022/07/19 12:57:50;;;;;;;21.83;4.30;;;;;;;;;;4941734;28;20099;-90
2022/07/19 13:00:17;;;;;;;23.95;3.58;;;;;;;;;;4932783;29;20126;-89
2022/07/19 13:02:43;;;;;;;24.67;3.30;;;;;;;;;;4943049;28;20044;-89
2022/07/19 13:05:09;;;;;;;14.35;3.00;;;;;;;;;;4940313;28;20071;-90
2022/07/19 13:07:35;;;;;;;16.50;2.88;;;;;;;;;;4934331;29;20032;-90
2022/07/19 13:10:01;;;;;;;10.82;3.75;;;;;;;;;;4946247;28;20767;-89
2022/07/19 13:12:27;;;;;;;34.13;4.53;;;;;;;;;;4929170;29;20127;-90
2022/07/19 13:14:53;;;;;;;20.25;4.50;;;;;;;;;;4931386;29;20123;-90
2022/07/19 13:17:19;;;;;;;24.10;4.03;;;;;;;;;;4934924;29;20040;-90
2022/07/19 13:19:45;;;;;;;29.48;4.18;;;;;;;;;;4943944;28;20048;-90
2022/07/19 13:22:12;;;;;;;35.22;4.38;;;;;;;;;;4932048;29;20035;-89
2022/07/19 13:24:39;;;;;;;15.57;4.30;;;;;;;;;;4930552;29;20028;-89
2022/07/19 13:27:05;;;;;;;24.13;4.00;;;;;;;;;;4946469;28;20487;-90
2022/07/19 13:29:31;;;;;;;49.10;4.22;;;;;;;;;;4946332;28;20160;-89
2022/07/19 13:31:58;;;;;;;19.38;3.15;;;;;;;;;;4948732;28;20110;-90
2022/07/19 13:34:24;;;;;;;9.70;3.70;;;;;;;;;;4946849;28;20036;-90
2022/07/19 13:36:51;;;;;;;10.98;3.75;;;;;;;;;;4942286;28;20885;-90
2022/07/19 13:39:17;;;;;;;12.55;2.88;;;;;;;;;;4935320;28;20039;-90
2022/07/19 13:41:43;;;;;;;9.40;3.08;;;;;;;;;;4943060;28;20506;-90
2022/07/19 13:44:09;;;;;;;6.68;2.75;;;;;;;;;;4949138;28;20035;-90
2022/07/19 13:46:35;;;;;;;6.10;2.70;;;;;;;;;;4934848;29;20027;-90
2022/07/19 13:49:02;;;;;;;6.70;3.08;;;;;;;;;;4914962;29;20522;-90
2022/07/19 13:51:28;;;;;;;7.18;2.63;;;;;;;;;;4950890;28;20545;-91
2022/07/19 13:53:54;;;;;;;3.67;2.42;;;;;;;;;;4930465;29;20043;-90
2022/07/19 13:56:27;;;;;;;9.63;2.75;;;;;;;;;;4942868;28;20031;-90
2022/07/19 13:58:53;;;;;;;3.15;2.30;;;;;;;;;;4929237;28;20044;-90
2022/07/19 14:01:19;;;;;;;5.22;2.35;;;;;;;;;;4943663;28;20051;-90
2022/07/19 14:03:46;;;;;;;8.32;2.80;;;;;;;;;;4930341;29;20034;-90
2022/07/19 14:06:12;;;;;;;9.30;2.47;;;;;;;;;;4946164;28;20130;-89
2022/07/19 14:08:39;;;;;;;7.70;3.10;;;;;;;;;;4930999;29;20032;-90
2022/07/19 14:11:05;;;;;;;3.28;2.30;;;;;;;;;;4946799;28;20468;-91
2022/07/19 14:13:31;;;;;;;5.20;2.10;;;;;;;;;;4949546;28;20063;-91
2022/07/19 14:15:57;;;;;;;4.75;2.40;;;;;;;;;;4957664;28;20105;-91
2022/07/19 14:18:23;;;;;;;3.75;2.15;;;;;;;;;;4956086;28;20038;-91
2022/07/19 14:20:49;;;;;;;4.22;1.92;;;;;;;;;;4941223;29;20038;-90
2022/07/19 14:23:15;;;;;;;6.68;2.47;;;;;;;;;;4955871;28;20038;-91
2022/07/19 14:25:42;;;;;;;4.30;2.20;;;;;;;;;;4955365;28;20032;-91
2022/07/19 14:28:08;;;;;;;6.95;2.35;;;;;;;;;;4954724;28;20301;-90
2022/07/19 14:30:37;;;;;;;4.18;2.03;;;;;;;;;;4951235;28;20045;-89
2022/07/19 14:33:03;;;;;;;9.55;2.42;;;;;;;;;;4934604;29;20028;-89
2022/07/19 14:35:29;;;;;;;5.10;2.33;;;;;;;;;;4949131;28;20039;-89
2022/07/19 14:37:56;;;;;;;5.63;2.35;;;;;;;;;;4917610;29;20028;-89